OASG weather

Sheberghan Airport
Jowzjan Province, Afghanistan

Public forecast

Using degrees Celsius for public forecast. Weather courtesy of forecast.io.

Current aviation weather report (METAR) for Sheberghan Airport

Report is more than 6 hours old.

Retrieved 2009/08/07 10:50 UTC (11 years ago):

OASG 071050Z 28020KT 8000 SKC 41/04 Q1006 A2971

Closest aviation forecast (TAF) to Sheberghan Airport

Closest forecast is Mazar I Sharif Airport, 62.4 nm (115.6 km) E. Retrieved 2020/08/03 18:06 UTC (3 hours ago):

TAF OAMS 031705Z 0318/0418 21007KT 9999 NSW SKC BECMG 0403/0405 27012KT 9999 NSW SKC TEMPO 0408/0413 29012G22KT 9000 NSW FEW080 BECMG 0413/0415 24010KT 9999 NSW SKC